Time;durP1;ratioP1;P1;durP2;ratioP2;P2;SDS_P1;SDS_P2;PMS_P1;PMS_P2;Temp;Humidity;BMP_temperature;BMP_pressure;BME280_temperature;BME280_humidity;BME280_pressure;Samples;Min_cycle;Max_cycle;Signal;HPM_P1;HPM_P2
2022/07/09 00:00:57;;;;;;;5.90;4.80;;;;;;;15.84;82.89;99253.59;4103594;28;21473;-87
2022/07/09 00:03:00;;;;;;;6.30;4.70;;;;;;;15.81;81.95;99253.81;4118804;28;20636;-86
2022/07/09 00:05:08;;;;;;;6.80;4.77;;;;;;;15.79;81.61;99253.91;4104708;28;20780;-86
2022/07/09 00:07:19;;;;;;;7.43;4.40;;;;;;;15.72;81.85;99250.03;4107624;28;20663;-87
2022/07/09 00:09:22;;;;;;;5.43;4.80;;;;;;;15.69;83.23;99259.94;4106975;28;20686;-87
2022/07/09 00:11:25;;;;;;;6.43;4.80;;;;;;;15.65;81.77;99258.44;4122986;28;20789;-86
2022/07/09 00:13:29;;;;;;;5.23;4.67;;;;;;;15.62;82.01;99259.53;4105200;28;20660;-87
2022/07/09 00:15:32;;;;;;;6.77;5.03;;;;;;;15.64;81.67;99262.88;4105256;28;20752;-86
2022/07/09 00:17:35;;;;;;;6.73;4.60;;;;;;;15.62;82.53;99263.94;4109808;28;21180;-86
2022/07/09 00:19:38;;;;;;;5.53;4.33;;;;;;;15.56;82.08;99256.50;4106810;28;20647;-87
2022/07/09 00:21:43;;;;;;;8.70;5.10;;;;;;;15.54;81.56;99261.00;4106999;28;20701;-87
2022/07/09 00:23:46;;;;;;;6.20;4.70;;;;;;;15.50;82.52;99262.19;4124582;28;20637;-87
2022/07/09 00:25:50;;;;;;;6.07;4.73;;;;;;;15.48;83.13;99260.59;4107737;28;20643;-87
2022/07/09 00:27:53;;;;;;;5.33;4.83;;;;;;;15.46;83.59;99254.59;4123652;28;21040;-87
2022/07/09 00:29:56;;;;;;;6.97;4.60;;;;;;;15.46;81.83;99255.44;4107998;28;20670;-87
2022/07/09 00:31:59;;;;;;;4.80;4.30;;;;;;;15.44;82.83;99254.72;4107854;28;20638;-87
2022/07/09 00:34:02;;;;;;;5.87;4.67;;;;;;;15.39;83.20;99248.91;4106181;28;20689;-87
2022/07/09 00:36:06;;;;;;;7.13;5.00;;;;;;;15.33;82.17;99245.88;4123748;28;20635;-87
2022/07/09 00:38:10;;;;;;;4.90;4.40;;;;;;;15.25;83.05;99246.41;4105677;28;20654;-87
2022/07/09 00:40:13;;;;;;;5.90;4.50;;;;;;;15.20;82.95;99240.63;4106996;28;20717;-86
2022/07/09 00:42:19;;;;;;;6.83;4.80;;;;;;;15.18;82.88;99236.41;4120622;28;20643;-86
2022/07/09 00:44:22;;;;;;;5.70;4.93;;;;;;;15.16;82.70;99239.09;4120841;28;21066;-86
2022/07/09 00:46:25;;;;;;;6.40;4.63;;;;;;;15.13;82.36;99243.75;4123515;28;20728;-86
2022/07/09 00:48:28;;;;;;;6.10;4.70;;;;;;;15.07;83.42;99236.28;4122970;28;20673;-86
2022/07/09 00:50:31;;;;;;;6.07;4.67;;;;;;;15.01;83.22;99231.44;4103753;28;21297;-86
2022/07/09 00:52:36;;;;;;;5.50;4.60;;;;;;;15.01;83.20;99236.69;4091417;29;20694;-87
2022/07/09 00:54:41;;;;;;;10.37;4.90;;;;;;;15.02;83.32;99227.88;4120400;28;21185;-87
2022/07/09 00:56:45;;;;;;;7.13;4.50;;;;;;;15.03;82.83;99226.06;4121262;28;21016;-86
2022/07/09 00:58:48;;;;;;;7.13;4.53;;;;;;;15.03;83.75;99226.91;4110751;28;20649;-86
2022/07/09 01:00:52;;;;;;;6.40;4.50;;;;;;;15.00;83.52;99232.38;4108647;28;20647;-86
2022/07/09 01:02:55;;;;;;;7.00;4.47;;;;;;;15.01;83.38;99223.53;4130632;28;20743;-87
2022/07/09 01:04:58;;;;;;;5.60;5.00;;;;;;;14.99;83.52;99225.44;4126266;28;20637;-87
2022/07/09 01:07:02;;;;;;;8.30;4.97;;;;;;;14.97;84.20;99226.47;4108525;28;20685;-87
2022/07/09 01:09:05;;;;;;;5.10;4.53;;;;;;;14.95;83.67;99226.59;4110151;28;20634;-87
2022/07/09 01:11:10;;;;;;;7.47;4.73;;;;;;;14.95;84.67;99229.22;4095053;28;20710;-86
2022/07/09 01:13:13;;;;;;;9.80;5.07;;;;;;;14.94;83.55;99217.00;4125234;28;20656;-87
2022/07/09 01:15:16;;;;;;;5.50;4.40;;;;;;;14.93;84.75;99214.50;4109862;28;20642;-87
2022/07/09 01:17:19;;;;;;;5.70;4.30;;;;;;;14.92;83.00;99223.34;4110084;28;20644;-86
2022/07/09 01:19:22;;;;;;;6.43;4.60;;;;;;;14.89;84.23;99223.53;4130369;28;20736;-87
2022/07/09 01:21:26;;;;;;;7.03;4.80;;;;;;;14.86;83.65;99223.75;4110630;28;20653;-86
2022/07/09 01:23:29;;;;;;;8.37;4.70;;;;;;;14.84;84.07;99221.22;4126236;28;20705;-86
2022/07/09 01:25:35;;;;;;;7.13;4.50;;;;;;;14.81;83.58;99221.44;4127874;28;20641;-87
2022/07/09 01:27:39;;;;;;;5.50;4.20;;;;;;;14.77;84.55;99214.69;4128994;28;20635;-87
2022/07/09 01:29:48;;;;;;;5.70;4.70;;;;;;;14.74;83.75;99212.28;4125806;28;20644;-87
2022/07/09 01:31:51;;;;;;;5.63;4.40;;;;;;;14.71;84.71;99216.91;4106331;28;21197;-86
2022/07/09 01:33:54;;;;;;;8.13;4.80;;;;;;;14.68;83.93;99211.84;4128639;28;21107;-87
2022/07/09 01:35:57;;;;;;;7.07;5.03;;;;;;;14.63;83.83;99206.06;4125360;28;20646;-86
2022/07/09 01:38:01;;;;;;;5.30;4.80;;;;;;;14.60;83.93;99203.66;4107981;28;20627;-86
2022/07/09 01:40:06;;;;;;;6.87;4.83;;;;;;;14.60;84.42;99201.84;4124603;28;20652;-86
2022/07/09 01:42:09;;;;;;;6.90;5.10;;;;;;;14.59;84.45;99202.78;4108543;28;20652;-87
2022/07/09 01:44:12;;;;;;;7.23;5.17;;;;;;;14.59;83.58;99199.31;4094950;28;21137;-87
2022/07/09 01:46:15;;;;;;;6.73;4.77;;;;;;;14.54;84.20;99200.56;4106622;28;20654;-87
2022/07/09 01:48:18;;;;;;;6.70;4.70;;;;;;;14.47;84.07;99200.13;4128626;28;20647;-87
2022/07/09 01:50:21;;;;;;;5.40;4.53;;;;;;;14.43;84.19;99193.41;4110359;28;21049;-87
2022/07/09 01:52:24;;;;;;;6.47;5.10;;;;;;;14.40;84.49;99198.00;4112356;28;20717;-86
2022/07/09 01:54:29;;;;;;;5.93;4.70;;;;;;;14.40;84.67;99192.75;4111770;28;20729;-86
2022/07/09 01:56:32;;;;;;;6.50;4.80;;;;;;;14.38;84.98;99185.00;4106497;28;20710;-87
2022/07/09 01:58:35;;;;;;;5.83;4.70;;;;;;;14.39;84.96;99180.59;4110846;28;20651;-87
2022/07/09 02:00:38;;;;;;;5.40;4.87;;;;;;;14.36;85.16;99171.13;4129067;28;20640;-87
2022/07/09 02:02:41;;;;;;;5.50;4.90;;;;;;;14.37;85.64;99177.22;4110574;28;20634;-86
2022/07/09 02:04:45;;;;;;;5.83;5.10;;;;;;;14.35;84.97;99168.63;4111261;28;20721;-87
2022/07/09 02:06:48;;;;;;;5.30;4.80;;;;;;;14.34;85.19;99177.41;4128259;28;20680;-87
2022/07/09 02:08:52;;;;;;;5.43;4.90;;;;;;;14.35;85.24;99169.44;4113257;28;20656;-86
2022/07/09 02:10:57;;;;;;;5.30;4.80;;;;;;;14.33;85.28;99165.25;4109324;28;20663;-87
2022/07/09 02:13:00;;;;;;;7.27;5.20;;;;;;;14.30;86.12;99176.78;4108763;28;21103;-86
2022/07/09 02:15:03;;;;;;;7.60;5.27;;;;;;;14.31;84.99;99173.25;4108748;28;20713;-86
2022/07/09 02:17:06;;;;;;;7.60;5.50;;;;;;;14.31;84.99;99177.63;4124231;28;21232;-86
2022/07/09 02:19:09;;;;;;;5.43;4.77;;;;;;;14.30;85.27;99170.72;4111825;28;20642;-86
2022/07/09 02:21:12;;;;;;;9.20;5.27;;;;;;;14.30;84.97;99171.53;4110673;28;20717;-86
2022/07/09 02:23:16;;;;;;;7.00;5.60;;;;;;;14.28;85.53;99173.44;4124046;28;21200;-87
2022/07/09 02:25:19;;;;;;;8.20;4.90;;;;;;;14.27;85.58;99165.66;4108733;28;20640;-86
2022/07/09 02:27:23;;;;;;;8.43;5.03;;;;;;;14.25;85.63;99172.78;4125576;28;20757;-86
2022/07/09 02:29:26;;;;;;;5.30;4.33;;;;;;;14.21;85.92;99164.28;4109695;28;20649;-86
2022/07/09 02:31:29;;;;;;;6.80;5.03;;;;;;;14.21;86.08;99166.06;4106876;28;20626;-86
2022/07/09 02:33:33;;;;;;;6.43;4.90;;;;;;;14.19;85.04;99173.19;4110139;28;20634;-86
2022/07/09 02:35:36;;;;;;;8.67;5.23;;;;;;;14.18;84.93;99171.50;4107386;28;21265;-86
2022/07/09 02:37:39;;;;;;;7.97;5.67;;;;;;;14.17;85.84;99175.91;4127105;28;20634;-86
2022/07/09 02:39:42;;;;;;;8.67;4.80;;;;;;;14.15;84.98;99176.97;4125479;28;20979;-86
2022/07/09 02:41:45;;;;;;;7.00;4.87;;;;;;;14.13;85.87;99175.38;4110358;28;20651;-86
2022/07/09 02:43:50;;;;;;;6.87;5.00;;;;;;;14.10;85.11;99172.94;4124619;28;20745;-87
2022/07/09 02:45:55;;;;;;;5.60;4.60;;;;;;;14.09;85.47;99173.88;4106790;28;20696;-86
2022/07/09 02:47:58;;;;;;;5.80;4.93;;;;;;;14.08;85.87;99172.22;4126264;28;20632;-86
2022/07/09 02:50:01;;;;;;;7.03;5.10;;;;;;;14.03;85.79;99172.47;4125723;28;20675;-86
2022/07/09 02:52:06;;;;;;;9.70;5.27;;;;;;;14.02;85.74;99173.41;4129899;28;20651;-86
2022/07/09 02:54:09;;;;;;;6.33;4.73;;;;;;;14.00;85.42;99174.47;4128197;28;20661;-86
2022/07/09 02:56:12;;;;;;;6.30;5.20;;;;;;;13.97;86.10;99170.25;4114571;28;20648;-86
2022/07/09 02:58:15;;;;;;;6.37;5.10;;;;;;;13.97;85.53;99180.75;4106312;28;21202;-87
2022/07/09 03:00:19;;;;;;;6.67;5.13;;;;;;;13.99;86.07;99172.78;4127142;28;21250;-86
2022/07/09 03:02:22;;;;;;;6.30;5.20;;;;;;;14.00;86.14;99182.34;4111171;28;20685;-86
2022/07/09 03:04:26;;;;;;;5.60;4.73;;;;;;;14.00;85.83;99182.34;4125379;28;20637;-87
2022/07/09 03:06:29;;;;;;;7.17;5.20;;;;;;;14.00;85.60;99182.34;4110368;28;20685;-86
2022/07/09 03:08:32;;;;;;;6.70;6.00;;;;;;;13.96;86.02;99181.66;4126682;28;20676;-86
2022/07/09 03:10:36;;;;;;;7.00;4.80;;;;;;;13.94;85.83;99172.25;4124032;28;21152;-86
2022/07/09 03:12:40;;;;;;;5.63;5.07;;;;;;;13.92;85.70;99174.97;4124520;28;20637;-86
2022/07/09 03:14:43;;;;;;;10.10;4.90;;;;;;;13.89;85.83;99185.66;4128037;28;20676;-86
2022/07/09 03:16:47;;;;;;;5.20;4.70;;;;;;;13.86;85.57;99175.34;4111099;28;20638;-86
2022/07/09 03:18:50;;;;;;;5.10;4.60;;;;;;;13.86;86.29;99185.84;4109666;28;20634;-86
2022/07/09 03:20:53;;;;;;;5.80;4.97;;;;;;;13.85;86.40;99184.16;4110829;28;21201;-86
2022/07/09 03:22:56;;;;;;;7.73;4.60;;;;;;;13.87;86.70;99184.06;4127226;28;21255;-86
2022/07/09 03:24:59;;;;;;;6.37;4.60;;;;;;;13.89;86.43;99192.66;4107208;28;20685;-86
2022/07/09 03:27:02;;;;;;;6.10;4.87;;;;;;;13.88;86.22;99193.63;4092669;28;20647;-86
2022/07/09 03:29:07;;;;;;;5.10;4.50;;;;;;;13.82;86.02;99194.84;4111225;28;20675;-86
2022/07/09 03:31:10;;;;;;;6.23;4.60;;;;;;;13.77;86.44;99191.66;4125816;28;20644;-86
2022/07/09 03:33:14;;;;;;;6.30;5.20;;;;;;;13.74;86.37;99191.88;4129580;28;20642;-86
2022/07/09 03:35:18;;;;;;;6.70;4.70;;;;;;;13.74;86.53;99193.63;4124966;28;20649;-86
2022/07/09 03:37:21;;;;;;;6.43;5.13;;;;;;;13.70;86.60;99192.97;4109045;28;20647;-86
2022/07/09 03:39:24;;;;;;;6.33;4.60;;;;;;;13.69;86.86;99193.09;4111333;28;20688;-86
2022/07/09 03:41:27;;;;;;;5.10;4.60;;;;;;;13.68;86.35;99192.25;4125566;28;20661;-86
2022/07/09 03:43:30;;;;;;;6.27;4.50;;;;;;;13.68;87.23;99191.38;4111502;28;20637;-86
2022/07/09 03:45:33;;;;;;;6.50;5.00;;;;;;;13.70;86.22;99192.97;4105519;28;20727;-86
2022/07/09 03:47:36;;;;;;;6.43;5.23;;;;;;;13.73;86.21;99194.59;4125847;28;21268;-86
2022/07/09 03:49:41;;;;;;;5.90;5.00;;;;;;;13.75;86.51;99198.78;4094699;28;21301;-86
2022/07/09 03:51:44;;;;;;;5.53;4.90;;;;;;;13.78;86.90;99195.13;4111704;28;20682;-86
2022/07/09 03:54:07;;;;;;;5.13;4.50;;;;;;;13.78;86.58;99188.09;4111446;28;20652;-86
2022/07/09 03:56:10;;;;;;;6.70;4.90;;;;;;;13.80;86.90;99195.84;4107031;28;20673;-86
2022/07/09 03:58:14;;;;;;;6.60;5.00;;;;;;;13.83;87.16;99196.53;4110214;28;21428;-86
2022/07/09 04:00:17;;;;;;;5.83;4.73;;;;;;;13.86;86.87;99188.47;4110664;28;20642;-86
2022/07/09 04:02:20;;;;;;;5.10;4.53;;;;;;;13.86;86.71;99185.84;4111421;28;20708;-86
2022/07/09 04:04:23;;;;;;;7.13;4.87;;;;;;;13.86;86.47;99188.47;4109703;28;20633;-86
2022/07/09 04:06:27;;;;;;;7.13;5.10;;;;;;;13.85;86.31;99186.78;4127479;28;20664;-86
2022/07/09 04:08:30;;;;;;;6.57;4.90;;;;;;;13.83;86.36;99180.78;4108093;28;20630;-86
2022/07/09 04:10:34;;;;;;;6.23;5.30;;;;;;;13.83;85.93;99179.94;4128388;28;20670;-86
2022/07/09 04:12:37;;;;;;;7.23;5.40;;;;;;;13.85;86.42;99183.31;4109191;28;20654;-86
2022/07/09 04:14:40;;;;;;;6.17;4.80;;;;;;;13.88;86.41;99183.94;4094992;28;20725;-86
2022/07/09 04:16:43;;;;;;;5.90;4.90;;;;;;;13.93;87.14;99187.09;4110001;28;20626;-86
2022/07/09 04:18:46;;;;;;;8.63;5.43;;;;;;;13.99;87.33;99189.34;4124906;28;20648;-86
2022/07/09 04:20:49;;;;;;;7.63;4.93;;;;;;;14.02;86.91;99190.94;4111099;28;21047;-86
2022/07/09 04:22:53;;;;;;;7.50;5.13;;;;;;;14.02;87.02;99191.78;4110881;28;20992;-86
2022/07/09 04:24:57;;;;;;;6.23;4.67;;;;;;;14.04;87.14;99197.75;4125652;28;20651;-86
2022/07/09 04:27:00;;;;;;;5.93;4.70;;;;;;;14.08;86.48;99194.03;4124704;28;20641;-86
2022/07/09 04:29:03;;;;;;;9.10;5.40;;;;;;;14.11;86.47;99201.72;4125014;28;20754;-86
2022/07/09 04:31:06;;;;;;;6.90;5.57;;;;;;;14.17;86.13;99202.13;4109838;28;20626;-86
2022/07/09 04:33:09;;;;;;;8.90;5.73;;;;;;;14.22;86.64;99204.47;4110529;28;20636;-86
2022/07/09 04:35:12;;;;;;;5.40;4.80;;;;;;;14.26;86.09;99205.97;4125469;28;20660;-86
2022/07/09 04:37:16;;;;;;;6.70;5.20;;;;;;;14.32;86.39;99210.81;4125977;28;20727;-86
2022/07/09 04:39:20;;;;;;;7.57;5.00;;;;;;;14.38;86.93;99210.41;4107861;28;21223;-86
2022/07/09 04:41:23;;;;;;;7.60;5.40;;;;;;;14.45;86.04;99211.66;4122549;28;20638;-86
2022/07/09 04:43:27;;;;;;;9.40;5.63;;;;;;;14.49;86.28;99210.53;4112708;28;20722;-87
2022/07/09 04:45:30;;;;;;;6.97;5.00;;;;;;;14.54;85.62;99218.94;4111193;28;21196;-87
2022/07/09 04:47:33;;;;;;;7.30;4.90;;;;;;;14.58;85.10;99212.56;4111398;28;20634;-87
2022/07/09 04:49:36;;;;;;;6.03;4.80;;;;;;;14.62;85.05;99213.09;4127374;28;20633;-86
2022/07/09 04:51:40;;;;;;;7.90;4.90;;;;;;;14.67;84.57;99215.41;4125479;28;20643;-87
2022/07/09 04:53:43;;;;;;;6.20;4.57;;;;;;;14.71;84.33;99219.53;4110176;28;20662;-86
2022/07/09 04:55:48;;;;;;;7.30;5.70;;;;;;;14.74;85.77;99209.63;4110730;28;20665;-86
2022/07/09 04:57:56;;;;;;;7.13;5.03;;;;;;;14.80;85.16;99217.09;4109917;28;20639;-86
2022/07/09 05:00:00;;;;;;;4.70;4.20;;;;;;;14.87;85.48;99218.38;4110924;28;20638;-86
2022/07/09 05:02:03;;;;;;;6.93;4.93;;;;;;;14.94;83.52;99216.19;4126048;28;20678;-86
2022/07/09 05:04:09;;;;;;;7.97;5.97;;;;;;;15.02;85.02;99212.09;4095796;28;21059;-87
2022/07/09 05:06:12;;;;;;;8.23;5.30;;;;;;;15.10;84.16;99215.03;4128077;28;20739;-87
2022/07/09 05:08:16;;;;;;;7.10;5.10;;;;;;;15.15;84.99;99221.66;4130365;28;20716;-87
2022/07/09 05:10:19;;;;;;;5.77;5.17;;;;;;;15.21;84.43;99216.00;4110959;28;20704;-87
2022/07/09 05:12:24;;;;;;;7.10;4.97;;;;;;;15.28;84.57;99214.63;4097480;28;20635;-86
2022/07/09 05:14:27;;;;;;;8.20;5.60;;;;;;;15.34;84.24;99216.84;4111722;28;20650;-87
2022/07/09 05:16:30;;;;;;;7.40;5.23;;;;;;;15.41;84.27;99214.63;4110607;28;20655;-87
2022/07/09 05:18:33;;;;;;;7.27;5.20;;;;;;;15.47;83.19;99217.69;4112240;28;20719;-86
2022/07/09 05:20:40;;;;;;;5.53;4.77;;;;;;;15.51;83.38;99203.34;4129345;28;20644;-86
2022/07/09 05:22:43;;;;;;;9.90;5.10;;;;;;;15.56;82.54;99223.13;4112473;28;20708;-86
2022/07/09 05:24:47;;;;;;;5.50;4.63;;;;;;;15.60;83.05;99208.81;4094925;28;21001;-86
2022/07/09 05:26:50;;;;;;;7.03;4.70;;;;;;;15.63;83.60;99213.03;4092715;28;20669;-87
2022/07/09 05:28:54;;;;;;;7.73;4.90;;;;;;;15.69;83.47;99217.84;4095283;29;20636;-87
2022/07/09 05:30:58;;;;;;;7.20;5.37;;;;;;;15.77;84.14;99220.75;4089158;28;20651;-87
2022/07/09 05:33:21;;;;;;;6.20;5.13;;;;;;;15.85;83.06;99215.81;4106899;28;20636;-87
2022/07/09 05:35:24;;;;;;;11.03;5.10;;;;;;;15.91;82.47;99218.00;4128235;28;21090;-86
2022/07/09 05:37:27;;;;;;;9.00;5.37;;;;;;;16.01;82.04;99213.75;4112030;28;20673;-87
2022/07/09 05:39:49;;;;;;;5.83;5.23;;;;;;;16.13;82.19;99218.97;4109456;28;20654;-86
2022/07/09 05:41:52;;;;;;;8.40;4.97;;;;;;;16.25;81.49;99213.69;4110695;28;20630;-87
2022/07/09 05:43:57;;;;;;;6.23;5.00;;;;;;;16.45;81.25;99217.47;4107685;28;21248;-87
2022/07/09 05:46:00;;;;;;;6.73;4.80;;;;;;;16.70;82.30;99216.41;4113857;28;21388;-87
2022/07/09 05:48:04;;;;;;;7.00;4.90;;;;;;;17.00;81.31;99216.72;4111729;28;20651;-87
2022/07/09 05:50:08;;;;;;;6.20;4.70;;;;;;;17.29;80.00;99226.75;4110375;28;20653;-87
2022/07/09 05:52:11;;;;;;;5.23;4.73;;;;;;;17.59;77.97;99224.34;4110602;28;20709;-87
2022/07/09 05:54:14;;;;;;;6.90;4.47;;;;;;;17.92;77.31;99226.97;4125129;28;20701;-87
2022/07/09 05:56:17;;;;;;;7.47;4.20;;;;;;;18.23;77.14;99224.44;4112830;28;20664;-87
2022/07/09 05:58:20;;;;;;;5.53;4.67;;;;;;;18.49;78.08;99224.84;4109145;28;20658;-88
2022/07/09 06:00:25;;;;;;;8.93;5.63;;;;;;;18.70;77.41;99231.00;4108548;28;20625;-87
2022/07/09 06:02:28;;;;;;;7.70;5.50;;;;;;;18.93;77.36;99235.19;4127011;28;20652;-87
2022/07/09 06:04:31;;;;;;;10.10;5.57;;;;;;;19.17;76.27;99235.78;4128032;28;21245;-87
2022/07/09 06:06:34;;;;;;;5.37;4.83;;;;;;;19.43;76.30;99232.63;4108702;28;20645;-87
2022/07/09 06:08:38;;;;;;;5.53;4.40;;;;;;;19.74;75.05;99234.28;4110260;28;21250;-87
2022/07/09 06:10:41;;;;;;;6.27;4.90;;;;;;;20.01;75.48;99246.00;4126644;28;21303;-87
2022/07/09 06:12:44;;;;;;;5.73;4.57;;;;;;;20.27;73.38;99229.47;4120763;28;20710;-87
2022/07/09 06:14:47;;;;;;;6.23;4.97;;;;;;;20.50;72.38;99233.56;4109343;28;20631;-87
2022/07/09 06:16:52;;;;;;;9.77;4.90;;;;;;;20.72;72.47;99231.50;4128751;28;20661;-87
2022/07/09 06:19:16;;;;;;;7.00;4.43;;;;;;;21.01;71.52;99237.63;4121846;28;20943;-87
2022/07/09 06:21:19;;;;;;;6.10;4.57;;;;;;;21.29;73.65;99243.72;4105491;28;20642;-88
2022/07/09 06:23:23;;;;;;;6.70;4.80;;;;;;;21.46;70.69;99239.53;4125512;28;20674;-88
2022/07/09 06:25:26;;;;;;;5.10;4.30;;;;;;;21.65;69.15;99234.16;4125232;28;21204;-87
2022/07/09 06:27:30;;;;;;;5.50;4.10;;;;;;;21.85;69.37;99236.59;4108183;28;20637;-87
2022/07/09 06:29:33;;;;;;;5.57;4.00;;;;;;;22.13;68.96;99235.59;4108332;28;21093;-87
2022/07/09 06:31:36;;;;;;;6.43;3.83;;;;;;;22.31;66.29;99240.84;4127520;28;21202;-88
2022/07/09 06:33:41;;;;;;;5.97;4.50;;;;;;;22.45;64.78;99237.69;4109055;28;21236;-88
2022/07/09 06:35:44;;;;;;;5.60;4.27;;;;;;;22.59;64.73;99239.81;4126975;28;20632;-87
2022/07/09 06:37:47;;;;;;;6.60;4.17;;;;;;;22.83;65.41;99235.56;4113284;28;20707;-88
2022/07/09 06:39:50;;;;;;;7.60;3.87;;;;;;;22.98;65.09;99236.72;4125525;28;20632;-88
2022/07/09 06:41:53;;;;;;;4.50;3.87;;;;;;;23.03;64.89;99234.44;4109045;28;21220;-88
2022/07/09 06:43:56;;;;;;;3.87;3.47;;;;;;;23.11;64.23;99238.97;4126635;28;20657;-88
2022/07/09 06:45:59;;;;;;;6.63;4.23;;;;;;;23.30;65.93;99242.28;4106279;28;20674;-88
2022/07/09 06:48:02;;;;;;;4.67;3.97;;;;;;;23.49;63.24;99232.28;4109972;28;20630;-88
2022/07/09 06:50:08;;;;;;;5.07;3.80;;;;;;;23.60;64.01;99231.19;4106207;28;20652;-88
2022/07/09 06:52:11;;;;;;;6.40;4.10;;;;;;;23.67;63.89;99231.25;4110112;28;20638;-88
2022/07/09 06:54:14;;;;;;;5.73;4.33;;;;;;;23.74;63.46;99226.97;4097131;28;20643;-88
2022/07/09 06:56:17;;;;;;;6.50;3.83;;;;;;;24.05;63.77;99233.44;4125585;28;20680;-88
2022/07/09 06:58:20;;;;;;;5.70;3.90;;;;;;;24.26;62.44;99231.19;4108765;28;21328;-88
2022/07/09 07:00:24;;;;;;;6.37;4.20;;;;;;;24.35;61.82;99228.41;4108876;28;20746;-88
2022/07/09 07:02:27;;;;;;;4.83;3.87;;;;;;;24.55;62.55;99237.81;4111727;28;21245;-88
2022/07/09 07:04:30;;;;;;;5.40;4.00;;;;;;;24.86;61.21;99233.50;4111943;28;20659;-88
2022/07/09 07:06:35;;;;;;;5.43;3.73;;;;;;;25.14;60.75;99233.88;4110148;28;20666;-88
2022/07/09 07:08:38;;;;;;;7.00;4.30;;;;;;;25.38;60.75;99235.69;4126673;28;21168;-88
2022/07/09 07:10:41;;;;;;;6.27;4.50;;;;;;;25.60;60.16;99230.47;4090730;29;21221;-88
2022/07/09 07:12:45;;;;;;;4.53;4.00;;;;;;;25.82;59.90;99229.81;4124416;28;20650;-87
2022/07/09 07:14:48;;;;;;;5.20;3.70;;;;;;;25.99;59.87;99224.22;4109408;28;20708;-88
2022/07/09 07:16:52;;;;;;;6.93;3.90;;;;;;;26.06;59.72;99219.00;4103604;28;20658;-88
2022/07/09 07:18:56;;;;;;;5.80;4.00;;;;;;;26.03;60.21;99232.75;4109122;28;21279;-88
2022/07/09 07:20:59;;;;;;;6.17;4.00;;;;;;;25.83;61.09;99228.78;4091491;29;20650;-89
2022/07/09 07:23:03;;;;;;;6.80;3.97;;;;;;;25.68;60.48;99222.50;4125756;28;20717;-88
2022/07/09 07:25:07;;;;;;;5.87;4.43;;;;;;;25.21;60.94;99213.53;4115539;28;20663;-90
2022/07/09 07:27:10;;;;;;;6.50;4.43;;;;;;;24.78;63.07;99212.16;4085353;28;20714;-92
2022/07/09 07:29:13;;;;;;;5.70;3.93;;;;;;;24.41;62.28;99209.06;4107621;28;20727;-90
2022/07/09 07:31:16;;;;;;;5.23;3.73;;;;;;;24.13;62.17;99208.63;4122173;28;20681;-87
2022/07/09 07:33:20;;;;;;;5.70;3.90;;;;;;;23.91;63.11;99206.56;4111335;28;20758;-89
2022/07/09 07:35:24;;;;;;;4.87;3.87;;;;;;;23.75;62.25;99201.13;4126955;28;20643;-91
2022/07/09 07:37:27;;;;;;;4.73;3.73;;;;;;;23.66;62.50;99196.75;4096035;28;20690;-90
2022/07/09 07:39:32;;;;;;;5.20;3.83;;;;;;;23.73;62.29;99190.63;4107177;28;20658;-90
2022/07/09 07:41:35;;;;;;;7.30;4.40;;;;;;;24.06;62.65;99199.63;4108164;28;20650;-87
2022/07/09 07:43:38;;;;;;;8.23;3.97;;;;;;;24.51;62.97;99207.09;4109236;28;20702;-88
2022/07/09 07:45:41;;;;;;;5.20;3.83;;;;;;;24.89;60.84;99211.81;4110039;28;20687;-88
2022/07/09 07:47:44;;;;;;;8.20;3.70;;;;;;;25.27;60.93;99217.34;4125621;28;20634;-88
2022/07/09 07:49:47;;;;;;;8.07;3.77;;;;;;;25.67;59.73;99212.78;4109330;28;20633;-87
2022/07/09 07:51:50;;;;;;;5.27;3.43;;;;;;;25.99;58.46;99218.03;4124872;28;20643;-87
2022/07/09 07:53:53;;;;;;;5.33;3.63;;;;;;;26.23;59.60;99221.44;4109852;28;20647;-87
2022/07/09 07:55:58;;;;;;;5.40;3.70;;;;;;;26.37;60.03;99216.22;4127041;28;20655;-87
2022/07/09 07:58:01;;;;;;;5.73;4.30;;;;;;;26.40;57.60;99221.22;4106863;28;20713;-87
2022/07/09 08:00:06;;;;;;;5.80;4.20;;;;;;;26.35;57.62;99223.56;4123715;28;20628;-88
2022/07/09 08:02:14;;;;;;;4.47;3.83;;;;;;;26.32;59.79;99215.88;4124993;28;20624;-87
2022/07/09 08:04:17;;;;;;;8.17;3.87;;;;;;;26.31;58.88;99219.59;4124571;28;20641;-91
2022/07/09 08:06:22;;;;;;;5.33;3.87;;;;;;;26.44;59.00;99214.47;4125084;28;20675;-91
2022/07/09 08:08:25;;;;;;;5.93;3.43;;;;;;;26.52;57.04;99219.78;4108427;28;20658;-92
2022/07/09 08:10:28;;;;;;;6.57;4.00;;;;;;;26.63;57.96;99211.38;4108907;28;20639;-91
2022/07/09 08:12:39;;;;;;;5.30;3.50;;;;;;;26.75;59.26;99220.66;4124591;28;20641;-92
2022/07/09 08:14:42;;;;;;;5.03;3.83;;;;;;;26.83;58.20;99215.22;4125281;28;20700;-92
2022/07/09 08:16:45;;;;;;;7.50;4.40;;;;;;;26.99;58.51;99212.44;4126827;28;20661;-92
2022/07/09 08:18:49;;;;;;;5.20;3.90;;;;;;;27.13;57.74;99216.00;4127538;28;20766;-92
2022/07/09 08:20:52;;;;;;;6.60;4.43;;;;;;;27.12;57.80;99213.50;4110867;28;21202;-91
2022/07/09 08:22:55;;;;;;;5.57;3.60;;;;;;;27.16;57.16;99215.66;4118367;28;20653;-92
2022/07/09 08:24:58;;;;;;;5.60;3.57;;;;;;;27.24;58.17;99217.44;4110637;28;21260;-91
2022/07/09 08:27:01;;;;;;;7.20;3.20;;;;;;;27.44;58.02;99210.53;4131122;28;20654;-92
2022/07/09 08:29:06;;;;;;;6.30;3.20;;;;;;;27.56;55.25;99207.28;4109765;28;20627;-91
2022/07/09 08:31:09;;;;;;;4.77;2.90;;;;;;;27.59;56.92;99201.53;4123572;28;20638;-93
2022/07/09 08:33:12;;;;;;;4.73;3.00;;;;;;;27.66;57.21;99197.09;4110225;28;20670;-92
2022/07/09 08:35:16;;;;;;;3.70;3.20;;;;;;;27.74;56.24;99191.63;4112303;28;20690;-92
2022/07/09 08:37:20;;;;;;;3.07;2.50;;;;;;;27.76;55.22;99197.66;4128131;28;20632;-92
2022/07/09 08:39:23;;;;;;;4.27;2.87;;;;;;;27.84;56.57;99200.22;4109152;28;20674;-92
2022/07/09 08:41:26;;;;;;;5.80;3.13;;;;;;;27.89;56.44;99193.31;4111659;28;20636;-93
2022/07/09 08:43:33;;;;;;;5.73;2.90;;;;;;;27.97;55.10;99184.31;4111476;28;20649;-94
2022/07/09 08:45:38;;;;;;;4.87;3.20;;;;;;;28.03;58.34;99182.53;4132654;28;20986;-93
2022/07/09 08:47:42;;;;;;;5.43;2.80;;;;;;;28.02;55.95;99172.84;4111889;28;20659;-94
2022/07/09 08:49:47;;;;;;;15.40;5.10;;;;;;;28.20;55.84;99181.34;4108373;28;20657;-93
2022/07/09 08:51:51;;;;;;;11.10;3.60;;;;;;;28.36;55.98;99170.38;4114520;28;21022;-92
2022/07/09 08:53:55;;;;;;;3.70;2.67;;;;;;;28.42;55.70;99179.53;4113892;28;20741;-91
2022/07/09 08:55:58;;;;;;;3.50;2.37;;;;;;;28.54;56.45;99173.47;4110435;28;20657;-93
2022/07/09 08:58:01;;;;;;;4.90;3.03;;;;;;;28.52;57.90;99170.97;4130594;28;20669;-92
2022/07/09 09:00:07;;;;;;;3.80;2.40;;;;;;;28.60;55.59;99168.16;4122828;28;20676;-92
2022/07/09 09:02:13;;;;;;;2.93;1.60;;;;;;;28.57;55.01;99156.97;4125635;28;20647;-93
2022/07/09 09:04:17;;;;;;;8.20;3.80;;;;;;;28.47;54.67;99161.81;4115204;28;20624;-93
2022/07/09 09:06:23;;;;;;;7.10;3.83;;;;;;;28.60;57.50;99161.97;4129295;28;20665;-92
2022/07/09 09:08:26;;;;;;;8.50;3.70;;;;;;;28.67;53.92;99161.03;4132066;28;20711;-92
2022/07/09 09:10:29;;;;;;;3.20;1.77;;;;;;;28.73;53.93;99157.59;4110673;28;20655;-92
2022/07/09 09:12:33;;;;;;;10.23;4.70;;;;;;;28.79;54.76;99156.81;4115177;28;20649;-93
2022/07/09 09:14:36;;;;;;;16.87;4.57;;;;;;;28.75;56.52;99152.03;4126042;28;20666;-92
2022/07/09 09:16:43;;;;;;;14.80;4.83;;;;;;;28.71;55.15;99148.06;4114717;28;20635;-92
2022/07/09 09:18:49;;;;;;;3.30;2.20;;;;;;;28.69;55.05;99144.72;4111512;28;21216;-92
2022/07/09 09:20:55;;;;;;;3.70;1.77;;;;;;;28.69;55.56;99144.72;4111040;28;20644;-90
2022/07/09 09:23:02;;;;;;;2.57;1.60;;;;;;;28.76;56.18;99141.09;4111443;28;20653;-92
2022/07/09 09:25:06;;;;;;;3.20;1.60;;;;;;;28.83;54.96;99141.97;4111632;28;20628;-93
2022/07/09 09:27:09;;;;;;;4.33;1.60;;;;;;;28.78;53.74;99136.34;4112101;28;21062;-93
2022/07/09 09:29:12;;;;;;;2.93;1.90;;;;;;;28.71;53.31;99137.31;4113079;28;20633;-92
2022/07/09 09:31:23;;;;;;;6.97;3.70;;;;;;;28.65;55.32;99136.16;4111391;28;20747;-91
2022/07/09 09:33:26;;;;;;;5.40;4.50;;;;;;;28.64;54.20;99133.69;4111513;28;20766;-92
2022/07/09 09:35:34;;;;;;;5.10;3.83;;;;;;;28.75;55.63;99142.09;4112219;28;20648;-91
2022/07/09 09:38:01;;;;;;;4.30;2.30;;;;;;;28.73;54.62;99130.72;4119302;28;21107;-90
2022/07/09 09:40:10;;;;;;;3.87;2.17;;;;;;;28.66;54.57;99129.81;4094152;28;20642;-92
2022/07/09 09:42:14;;;;;;;4.63;2.70;;;;;;;28.80;56.18;99131.59;4113168;28;20679;-91
2022/07/09 09:44:19;;;;;;;5.00;1.90;;;;;;;28.75;54.01;99117.91;4127442;28;20632;-91